sensor_id;sensor_type;location;lat;lon;timestamp;pressure;altitude;pressure_sealevel;temperature;humidity
23318;BME280;11831;55.918;37.746;2022-12-15T00:01:23;99481.97;;;-2.13;0.00
23318;BME280;11831;55.918;37.746;2022-12-15T00:04:08;99496.13;;;-1.61;0.00
23318;BME280;11831;55.918;37.746;2022-12-15T00:06:53;99504.41;;;-2.75;0.00
23318;BME280;11831;55.918;37.746;2022-12-15T00:09:38;99493.28;;;-2.50;0.00
23318;BME280;11831;55.918;37.746;2022-12-15T00:12:22;99498.50;;;-2.50;0.00
23318;BME280;11831;55.918;37.746;2022-12-15T00:15:08;99511.13;;;-2.73;0.00
23318;BME280;11831;55.918;37.746;2022-12-15T00:17:52;99499.03;;;-2.46;0.00
23318;BME280;11831;55.918;37.746;2022-12-15T00:20:37;99503.16;;;-2.34;0.00
23318;BME280;11831;55.918;37.746;2022-12-15T00:23:22;99509.41;;;-2.55;0.00
23318;BME280;11831;55.918;37.746;2022-12-15T00:26:07;99495.75;;;-2.48;0.00
23318;BME280;11831;55.918;37.746;2022-12-15T00:28:52;99513.44;;;-2.60;0.00
23318;BME280;11831;55.918;37.746;2022-12-15T00:31:37;99523.66;;;-2.67;0.00
23318;BME280;11831;55.918;37.746;2022-12-15T00:34:21;99514.69;;;-2.27;0.00
23318;BME280;11831;55.918;37.746;2022-12-15T00:37:06;99508.41;;;-2.07;0.00
23318;BME280;11831;55.918;37.746;2022-12-15T00:39:51;99509.59;;;-2.29;0.00
23318;BME280;11831;55.918;37.746;2022-12-15T00:42:27;99515.91;;;-2.22;0.00
23318;BME280;11831;55.918;37.746;2022-12-15T00:44:54;99517.34;;;-2.00;0.00
23318;BME280;11831;55.918;37.746;2022-12-15T00:47:21;99518.81;;;-2.25;0.00
23318;BME280;11831;55.918;37.746;2022-12-15T00:49:47;99533.28;;;-1.93;0.00
23318;BME280;11831;55.918;37.746;2022-12-15T00:52:32;99525.88;;;-1.98;0.00
23318;BME280;11831;55.918;37.746;2022-12-15T00:55:17;99527.69;;;-2.35;0.00
23318;BME280;11831;55.918;37.746;2022-12-15T00:58:02;99527.53;;;-1.97;0.00
23318;BME280;11831;55.918;37.746;2022-12-15T01:00:47;99525.94;;;-2.07;0.00
23318;BME280;11831;55.918;37.746;2022-12-15T01:03:32;99526.38;;;-2.12;0.00
23318;BME280;11831;55.918;37.746;2022-12-15T01:06:18;99534.78;;;-2.18;0.00
23318;BME280;11831;55.918;37.746;2022-12-15T01:09:05;99533.16;;;-1.92;0.00
23318;BME280;11831;55.918;37.746;2022-12-15T01:11:51;99528.47;;;-2.62;0.00
23318;BME280;11831;55.918;37.746;2022-12-15T01:14:36;99537.09;;;-2.15;0.00
23318;BME280;11831;55.918;37.746;2022-12-15T01:17:21;99535.97;;;-2.03;0.00
23318;BME280;11831;55.918;37.746;2022-12-15T01:20:06;99548.44;;;-1.87;0.00
23318;BME280;11831;55.918;37.746;2022-12-15T01:22:53;99553.75;;;-2.34;0.00
23318;BME280;11831;55.918;37.746;2022-12-15T01:25:23;99555.78;;;-2.28;0.00
23318;BME280;11831;55.918;37.746;2022-12-15T01:27:50;99547.66;;;-1.97;0.00
23318;BME280;11831;55.918;37.746;2022-12-15T01:30:19;99553.44;;;-2.31;0.00
23318;BME280;11831;55.918;37.746;2022-12-15T01:32:47;99553.94;;;-1.80;0.00
23318;BME280;11831;55.918;37.746;2022-12-15T01:35:14;99552.16;;;-2.17;0.00
23318;BME280;11831;55.918;37.746;2022-12-15T01:37:41;99558.44;;;-2.00;0.00
23318;BME280;11831;55.918;37.746;2022-12-15T01:40:12;99553.69;;;-2.24;0.00
23318;BME280;11831;55.918;37.746;2022-12-15T01:42:56;99562.78;;;-2.19;0.00
23318;BME280;11831;55.918;37.746;2022-12-15T01:48:10;99556.09;;;-2.03;0.00
23318;BME280;11831;55.918;37.746;2022-12-15T01:51:03;99562.91;;;-2.67;0.00
23318;BME280;11831;55.918;37.746;2022-12-15T01:53:33;99557.31;;;-1.98;0.00
23318;BME280;11831;55.918;37.746;2022-12-15T01:56:02;99553.25;;;-2.20;0.00
23318;BME280;11831;55.918;37.746;2022-12-15T01:58:30;99557.03;;;-2.32;0.00
23318;BME280;11831;55.918;37.746;2022-12-15T02:00:57;99558.69;;;-1.94;0.00
23318;BME280;11831;55.918;37.746;2022-12-15T02:03:24;99563.81;;;-2.39;0.00
23318;BME280;11831;55.918;37.746;2022-12-15T02:05:51;99569.03;;;-2.29;0.00
23318;BME280;11831;55.918;37.746;2022-12-15T02:08:18;99566.16;;;-2.36;0.00
23318;BME280;11831;55.918;37.746;2022-12-15T02:14:00;99568.13;;;-2.57;0.00
23318;BME280;11831;55.918;37.746;2022-12-15T02:19:48;99574.91;;;-2.17;0.00
23318;BME280;11831;55.918;37.746;2022-12-15T02:28:06;99586.69;;;-2.31;0.00
23318;BME280;11831;55.918;37.746;2022-12-15T02:30:50;99593.53;;;-2.21;0.00
23318;BME280;11831;55.918;37.746;2022-12-15T02:33:56;99587.91;;;-1.89;0.00
23318;BME280;11831;55.918;37.746;2022-12-15T02:36:39;99586.88;;;-2.05;0.00
23318;BME280;11831;55.918;37.746;2022-12-15T02:39:10;99587.66;;;-2.32;0.00
23318;BME280;11831;55.918;37.746;2022-12-15T02:41:40;99606.66;;;-2.30;0.00
23318;BME280;11831;55.918;37.746;2022-12-15T02:44:29;99602.59;;;-2.15;0.00
23318;BME280;11831;55.918;37.746;2022-12-15T02:47:07;99605.94;;;-2.13;0.00
23318;BME280;11831;55.918;37.746;2022-12-15T02:52:53;99591.66;;;-2.47;0.00
23318;BME280;11831;55.918;37.746;2022-12-15T02:55:34;99594.28;;;-2.38;0.00
23318;BME280;11831;55.918;37.746;2022-12-15T03:00:36;99592.41;;;-2.18;0.00
23318;BME280;11831;55.918;37.746;2022-12-15T03:03:04;99592.41;;;-2.18;0.00
23318;BME280;11831;55.918;37.746;2022-12-15T03:05:30;99589.09;;;-2.10;0.00
23318;BME280;11831;55.918;37.746;2022-12-15T03:07:57;99601.53;;;-2.22;0.00
23318;BME280;11831;55.918;37.746;2022-12-15T03:10:24;99588.56;;;-1.77;0.00
23318;BME280;11831;55.918;37.746;2022-12-15T03:12:51;99596.97;;;-2.10;0.00
23318;BME280;11831;55.918;37.746;2022-12-15T03:15:18;99586.88;;;-2.15;0.00
23318;BME280;11831;55.918;37.746;2022-12-15T03:17:44;99605.03;;;-1.67;0.00
23318;BME280;11831;55.918;37.746;2022-12-15T03:20:11;99608.03;;;-1.79;0.00
23318;BME280;11831;55.918;37.746;2022-12-15T03:22:37;99620.53;;;-2.10;0.00
23318;BME280;11831;55.918;37.746;2022-12-15T03:25:04;99612.50;;;-1.99;0.00
23318;BME280;11831;55.918;37.746;2022-12-15T03:27:31;99613.19;;;-2.63;0.00
23318;BME280;11831;55.918;37.746;2022-12-15T03:29:57;99611.28;;;-2.14;0.00
23318;BME280;11831;55.918;37.746;2022-12-15T03:32:24;99607.22;;;-1.90;0.00
23318;BME280;11831;55.918;37.746;2022-12-15T03:34:50;99614.91;;;-2.25;0.00
23318;BME280;11831;55.918;37.746;2022-12-15T03:37:16;99611.19;;;-2.23;0.00
23318;BME280;11831;55.918;37.746;2022-12-15T03:39:43;99626.63;;;-2.10;0.00
23318;BME280;11831;55.918;37.746;2022-12-15T03:42:10;99622.59;;;-2.04;0.00
23318;BME280;11831;55.918;37.746;2022-12-15T03:44:36;99622.00;;;-1.98;0.00
23318;BME280;11831;55.918;37.746;2022-12-15T03:47:02;99627.31;;;-2.17;0.00
23318;BME280;11831;55.918;37.746;2022-12-15T03:49:29;99622.59;;;-2.04;0.00
23318;BME280;11831;55.918;37.746;2022-12-15T03:51:55;99626.19;;;-2.15;0.00
23318;BME280;11831;55.918;37.746;2022-12-15T03:54:21;99625.13;;;-1.85;0.00
23318;BME280;11831;55.918;37.746;2022-12-15T03:56:48;99624.44;;;-1.87;0.00
23318;BME280;11831;55.918;37.746;2022-12-15T03:59:15;99621.94;;;-2.26;0.00
23318;BME280;11831;55.918;37.746;2022-12-15T04:01:45;99625.25;;;-2.14;0.00
23318;BME280;11831;55.918;37.746;2022-12-15T04:04:13;99624.28;;;-2.13;0.00
23318;BME280;11831;55.918;37.746;2022-12-15T04:06:40;99633.78;;;-2.22;0.00
23318;BME280;11831;55.918;37.746;2022-12-15T04:09:06;99633.69;;;-2.30;0.00
23318;BME280;11831;55.918;37.746;2022-12-15T04:11:33;99635.19;;;-1.80;0.00
23318;BME280;11831;55.918;37.746;2022-12-15T04:13:59;99630.75;;;-2.07;0.00
23318;BME280;11831;55.918;37.746;2022-12-15T04:16:26;99634.94;;;-2.34;0.00
23318;BME280;11831;55.918;37.746;2022-12-15T04:18:52;99634.94;;;-1.87;0.00
23318;BME280;11831;55.918;37.746;2022-12-15T04:21:38;99635.75;;;-1.87;0.00
23318;BME280;11831;55.918;37.746;2022-12-15T04:24:05;99641.75;;;-2.04;0.00
23318;BME280;11831;55.918;37.746;2022-12-15T04:26:50;99642.78;;;-1.77;0.00
23318;BME280;11831;55.918;37.746;2022-12-15T04:29:34;99639.88;;;-1.84;0.00
23318;BME280;11831;55.918;37.746;2022-12-15T04:32:19;99647.22;;;-1.88;0.00
23318;BME280;11831;55.918;37.746;2022-12-15T04:35:04;99657.16;;;-1.91;0.00
23318;BME280;11831;55.918;37.746;2022-12-15T04:37:49;99653.84;;;-1.93;0.00
23318;BME280;11831;55.918;37.746;2022-12-15T04:40:34;99658.44;;;-2.05;0.00
23318;BME280;11831;55.918;37.746;2022-12-15T04:43:18;99651.47;;;-1.87;0.00
23318;BME280;11831;55.918;37.746;2022-12-15T04:46:03;99656.56;;;-1.85;0.00
23318;BME280;11831;55.918;37.746;2022-12-15T04:48:48;99660.03;;;-1.84;0.00
23318;BME280;11831;55.918;37.746;2022-12-15T04:51:33;99664.63;;;-1.96;0.00
23318;BME280;11831;55.918;37.746;2022-12-15T04:54:18;99657.72;;;-1.97;0.00
23318;BME280;11831;55.918;37.746;2022-12-15T04:57:03;99657.63;;;-2.05;0.00
23318;BME280;11831;55.918;37.746;2022-12-15T04:59:47;99667.16;;;-2.14;0.00
23318;BME280;11831;55.918;37.746;2022-12-15T05:02:32;99677.22;;;-2.09;0.00
23318;BME280;11831;55.918;37.746;2022-12-15T05:05:17;99670.72;;;-2.05;0.00
23318;BME280;11831;55.918;37.746;2022-12-15T05:08:02;99678.59;;;-2.05;0.00
23318;BME280;11831;55.918;37.746;2022-12-15T05:10:46;99687.69;;;-2.09;0.00
23318;BME280;11831;55.918;37.746;2022-12-15T05:13:31;99688.97;;;-2.13;0.00
23318;BME280;11831;55.918;37.746;2022-12-15T05:16:16;99696.06;;;-1.96;0.00
23318;BME280;11831;55.918;37.746;2022-12-15T05:19:01;99694.06;;;-2.12;0.00
23318;BME280;11831;55.918;37.746;2022-12-15T05:21:46;99694.53;;;-1.89;0.00
23318;BME280;11831;55.918;37.746;2022-12-15T05:24:30;99707.16;;;-2.22;0.00
23318;BME280;11831;55.918;37.746;2022-12-15T05:27:15;99713.19;;;-2.02;0.00
23318;BME280;11831;55.918;37.746;2022-12-15T05:30:00;99706.03;;;-2.09;0.00
23318;BME280;11831;55.918;37.746;2022-12-15T05:32:45;99705.47;;;-2.03;0.00
23318;BME280;11831;55.918;37.746;2022-12-15T05:35:11;99707.34;;;-1.86;0.00
23318;BME280;11831;55.918;37.746;2022-12-15T05:37:38;99705.25;;;-1.73;0.00
23318;BME280;11831;55.918;37.746;2022-12-15T05:40:04;99714.16;;;-1.46;0.00
23318;BME280;11831;55.918;37.746;2022-12-15T05:42:31;99719.63;;;-1.40;0.00
23318;BME280;11831;55.918;37.746;2022-12-15T05:44:57;99720.75;;;-1.79;0.00
23318;BME280;11831;55.918;37.746;2022-12-15T05:47:24;99711.63;;;-1.38;0.00
23318;BME280;11831;55.918;37.746;2022-12-15T05:49:50;99713.22;;;-1.28;0.00
23318;BME280;11831;55.918;37.746;2022-12-15T05:52:17;99713.81;;;-1.34;0.00
23318;BME280;11831;55.918;37.746;2022-12-15T05:54:43;99720.59;;;-1.41;0.00
23318;BME280;11831;55.918;37.746;2022-12-15T05:57:09;99717.59;;;-1.83;0.00
23318;BME280;11831;55.918;37.746;2022-12-15T05:59:36;99729.88;;;-2.03;0.00
23318;BME280;11831;55.918;37.746;2022-12-15T06:02:02;99738.94;;;-1.88;0.00
23318;BME280;11831;55.918;37.746;2022-12-15T06:04:29;99727.41;;;-2.24;0.00
23318;BME280;11831;55.918;37.746;2022-12-15T06:06:55;99732.47;;;-1.93;0.00
23318;BME280;11831;55.918;37.746;2022-12-15T06:09:22;99732.56;;;-1.66;0.00
23318;BME280;11831;55.918;37.746;2022-12-15T06:11:49;99731.38;;;-1.81;0.00
23318;BME280;11831;55.918;37.746;2022-12-15T06:14:15;99727.63;;;-1.78;0.00
23318;BME280;11831;55.918;37.746;2022-12-15T06:16:41;99735.97;;;-2.02;0.00
23318;BME280;11831;55.918;37.746;2022-12-15T06:19:08;99726.81;;;-1.79;0.00
23318;BME280;11831;55.918;37.746;2022-12-15T06:21:35;99733.13;;;-1.72;0.00
23318;BME280;11831;55.918;37.746;2022-12-15T06:24:05;99736.78;;;-2.02;0.00
23318;BME280;11831;55.918;37.746;2022-12-15T06:26:37;99736.03;;;-1.75;0.00
23318;BME280;11831;55.918;37.746;2022-12-15T06:29:06;99728.72;;;-1.71;0.00
23318;BME280;11831;55.918;37.746;2022-12-15T06:31:37;99732.13;;;-1.51;0.00
23318;BME280;11831;55.918;37.746;2022-12-15T06:34:06;99743.44;;;-1.51;0.00
23318;BME280;11831;55.918;37.746;2022-12-15T06:36:33;99735.47;;;-1.32;0.00
23318;BME280;11831;55.918;37.746;2022-12-15T06:39:01;99751.06;;;-1.30;0.00
23318;BME280;11831;55.918;37.746;2022-12-15T06:41:28;99750.69;;;-1.35;0.00
23318;BME280;11831;55.918;37.746;2022-12-15T06:43:56;99750.22;;;-1.21;0.00
23318;BME280;11831;55.918;37.746;2022-12-15T06:46:23;99746.16;;;-1.43;0.00
23318;BME280;11831;55.918;37.746;2022-12-15T06:48:50;99750.16;;;-1.39;0.00
23318;BME280;11831;55.918;37.746;2022-12-15T06:51:18;99756.81;;;-1.54;0.00
23318;BME280;11831;55.918;37.746;2022-12-15T06:53:45;99760.81;;;-1.50;0.00
23318;BME280;11831;55.918;37.746;2022-12-15T06:56:21;99760.78;;;-1.40;0.00
23318;BME280;11831;55.918;37.746;2022-12-15T06:58:49;99761.28;;;-1.27;0.00
23318;BME280;11831;55.918;37.746;2022-12-15T07:01:21;99769.28;;;-1.19;0.00
23318;BME280;11831;55.918;37.746;2022-12-15T07:03:48;99774.25;;;-1.26;0.00
23318;BME280;11831;55.918;37.746;2022-12-15T07:06:15;99771.91;;;-1.19;0.00
23318;BME280;11831;55.918;37.746;2022-12-15T07:08:43;99771.91;;;-1.29;0.00
23318;BME280;11831;55.918;37.746;2022-12-15T07:11:12;99781.22;;;-1.53;0.00
23318;BME280;11831;55.918;37.746;2022-12-15T07:13:39;99781.41;;;-1.65;0.00
23318;BME280;11831;55.918;37.746;2022-12-15T07:16:06;99784.22;;;-1.95;0.00
23318;BME280;11831;55.918;37.746;2022-12-15T07:18:33;99781.00;;;-1.70;0.00
23318;BME280;11831;55.918;37.746;2022-12-15T07:21:04;99785.59;;;-1.81;0.00
23318;BME280;11831;55.918;37.746;2022-12-15T07:23:31;99788.19;;;-1.72;0.00
23318;BME280;11831;55.918;37.746;2022-12-15T07:26:10;99782.97;;;-1.35;0.00
23318;BME280;11831;55.918;37.746;2022-12-15T07:28:37;99779.97;;;-1.40;0.00
23318;BME280;11831;55.918;37.746;2022-12-15T07:31:05;99773.94;;;-1.22;0.00
23318;BME280;11831;55.918;37.746;2022-12-15T07:33:33;99783.22;;;-1.18;0.00
23318;BME280;11831;55.918;37.746;2022-12-15T07:36:00;99791.12;;;-0.91;0.00
23318;BME280;11831;55.918;37.746;2022-12-15T07:38:28;99788.66;;;-0.75;0.00
23318;BME280;11831;55.918;37.746;2022-12-15T07:40:58;99788.41;;;-1.46;0.00
23318;BME280;11831;55.918;37.746;2022-12-15T07:43:26;99781.47;;;-1.37;0.00
23318;BME280;11831;55.918;37.746;2022-12-15T07:45:53;99777.72;;;-0.98;0.00
23318;BME280;11831;55.918;37.746;2022-12-15T07:48:20;99773.66;;;-0.82;0.00
23318;BME280;11831;55.918;37.746;2022-12-15T07:50:47;99776.31;;;-1.19;0.00
23318;BME280;11831;55.918;37.746;2022-12-15T07:53:13;99776.41;;;-1.58;0.00
23318;BME280;11831;55.918;37.746;2022-12-15T07:55:40;99781.81;;;-1.22;0.00
23318;BME280;11831;55.918;37.746;2022-12-15T07:58:06;99774.09;;;-1.14;0.00
23318;BME280;11831;55.918;37.746;2022-12-15T08:00:33;99774.91;;;-1.51;0.00
23318;BME280;11831;55.918;37.746;2022-12-15T08:03:00;99782.50;;;-1.58;0.00
23318;BME280;11831;55.918;37.746;2022-12-15T08:05:28;99772.47;;;-1.72;0.00
23318;BME280;11831;55.918;37.746;2022-12-15T08:07:56;99779.25;;;-2.17;0.00
23318;BME280;11831;55.918;37.746;2022-12-15T08:10:23;99784.00;;;-2.81;0.00
23318;BME280;11831;55.918;37.746;2022-12-15T08:12:49;99791.72;;;-2.89;0.00
23318;BME280;11831;55.918;37.746;2022-12-15T08:15:16;99816.13;;;-3.09;0.00
23318;BME280;11831;55.918;37.746;2022-12-15T08:17:43;99814.03;;;-3.46;0.00
23318;BME280;11831;55.918;37.746;2022-12-15T08:20:10;99807.38;;;-3.59;0.00
23318;BME280;11831;55.918;37.746;2022-12-15T08:22:37;99806.75;;;-3.42;0.00
23318;BME280;11831;55.918;37.746;2022-12-15T08:25:03;99822.66;;;-3.55;0.00
23318;BME280;11831;55.918;37.746;2022-12-15T08:27:30;99824.81;;;-4.01;0.00
23318;BME280;11831;55.918;37.746;2022-12-15T08:29:56;99820.53;;;-4.02;0.00
23318;BME280;11831;55.918;37.746;2022-12-15T08:32:23;99822.59;;;-3.85;0.00
23318;BME280;11831;55.918;37.746;2022-12-15T08:34:49;99808.34;;;-3.60;0.00
23318;BME280;11831;55.918;37.746;2022-12-15T08:37:16;99808.03;;;-3.67;0.00
23318;BME280;11831;55.918;37.746;2022-12-15T08:39:42;99797.59;;;-3.36;0.00
23318;BME280;11831;55.918;37.746;2022-12-15T08:42:09;99798.84;;;-3.00;0.00
23318;BME280;11831;55.918;37.746;2022-12-15T08:44:35;99801.81;;;-3.45;0.00
23318;BME280;11831;55.918;37.746;2022-12-15T08:47:02;99807.16;;;-3.47;0.00
23318;BME280;11831;55.918;37.746;2022-12-15T08:49:28;99813.06;;;-3.96;0.00
23318;BME280;11831;55.918;37.746;2022-12-15T08:51:55;99816.44;;;-3.63;0.00
23318;BME280;11831;55.918;37.746;2022-12-15T08:54:21;99816.06;;;-4.12;0.00
23318;BME280;11831;55.918;37.746;2022-12-15T08:56:48;99811.34;;;-4.18;0.00
23318;BME280;11831;55.918;37.746;2022-12-15T08:59:14;99797.66;;;-4.10;0.00
23318;BME280;11831;55.918;37.746;2022-12-15T09:01:41;99806.28;;;-3.78;0.00
23318;BME280;11831;55.918;37.746;2022-12-15T09:04:08;99802.53;;;-3.64;0.00
23318;BME280;11831;55.918;37.746;2022-12-15T09:06:34;99800.97;;;-3.46;0.00
23318;BME280;11831;55.918;37.746;2022-12-15T09:09:04;99810.94;;;-3.81;0.00
23318;BME280;11831;55.918;37.746;2022-12-15T09:11:32;99815.06;;;-3.79;0.00
23318;BME280;11831;55.918;37.746;2022-12-15T09:13:59;99815.69;;;-4.28;0.00
23318;BME280;11831;55.918;37.746;2022-12-15T09:16:26;99812.66;;;-3.91;0.00
23318;BME280;11831;55.918;37.746;2022-12-15T09:18:56;99821.78;;;-3.65;0.00
23318;BME280;11831;55.918;37.746;2022-12-15T09:21:24;99809.78;;;-3.88;0.00
23318;BME280;11831;55.918;37.746;2022-12-15T09:23:54;99828.16;;;-3.79;0.00
23318;BME280;11831;55.918;37.746;2022-12-15T09:26:22;99815.53;;;-3.53;0.00
23318;BME280;11831;55.918;37.746;2022-12-15T09:28:49;99823.63;;;-3.77;0.00
23318;BME280;11831;55.918;37.746;2022-12-15T09:31:21;99816.41;;;-4.05;0.00
23318;BME280;11831;55.918;37.746;2022-12-15T09:33:50;99819.81;;;-3.93;0.00
23318;BME280;11831;55.918;37.746;2022-12-15T09:36:17;99808.44;;;-4.03;0.00
23318;BME280;11831;55.918;37.746;2022-12-15T09:38:44;99814.19;;;-3.89;0.00
23318;BME280;11831;55.918;37.746;2022-12-15T09:48:57;99791.78;;;-2.69;0.00
23318;BME280;11831;55.918;37.746;2022-12-15T09:51:39;99794.75;;;-2.84;0.00
23318;BME280;11831;55.918;37.746;2022-12-15T09:54:09;99782.19;;;-2.90;0.00
23318;BME280;11831;55.918;37.746;2022-12-15T09:56:56;99784.50;;;-3.06;0.00
23318;BME280;11831;55.918;37.746;2022-12-15T10:05:12;99761.06;;;-2.58;0.00
23318;BME280;11831;55.918;37.746;2022-12-15T10:07:44;99759.69;;;-2.13;0.00
23318;BME280;11831;55.918;37.746;2022-12-15T10:10:32;99747.69;;;-2.26;0.00
23318;BME280;11831;55.918;37.746;2022-12-15T10:13:07;99739.97;;;-2.17;0.00
23318;BME280;11831;55.918;37.746;2022-12-15T10:15:40;99735.00;;;-2.30;0.00
23318;BME280;11831;55.918;37.746;2022-12-15T10:18:22;99741.63;;;-2.45;0.00
23318;BME280;11831;55.918;37.746;2022-12-15T10:20:53;99730.72;;;-2.22;0.00
23318;BME280;11831;55.918;37.746;2022-12-15T10:23:20;99731.12;;;-2.16;0.00
23318;BME280;11831;55.918;37.746;2022-12-15T10:26:00;99732.34;;;-1.82;0.00
23318;BME280;11831;55.918;37.746;2022-12-15T10:29:30;99724.91;;;-1.96;0.00
23318;BME280;11831;55.918;37.746;2022-12-15T10:34:26;99733.34;;;-2.02;0.00
23318;BME280;11831;55.918;37.746;2022-12-15T10:36:54;99735.97;;;-2.12;0.00
23318;BME280;11831;55.918;37.746;2022-12-15T10:39:21;99727.16;;;-2.30;0.00
23318;BME280;11831;55.918;37.746;2022-12-15T10:44:40;99733.06;;;-2.19;0.00
23318;BME280;11831;55.918;37.746;2022-12-15T10:47:17;99726.28;;;-1.82;0.00
23318;BME280;11831;55.918;37.746;2022-12-15T10:49:44;99729.06;;;-2.23;0.00
23318;BME280;11831;55.918;37.746;2022-12-15T10:52:22;99732.78;;;-2.15;0.00
23318;BME280;11831;55.918;37.746;2022-12-15T10:54:51;99733.06;;;-2.19;0.00
23318;BME280;11831;55.918;37.746;2022-12-15T10:57:27;99731.84;;;-2.34;0.00
23318;BME280;11831;55.918;37.746;2022-12-15T10:59:56;99740.91;;;-1.43;0.00
23318;BME280;11831;55.918;37.746;2022-12-15T11:02:32;99745.19;;;-1.98;0.00
23318;BME280;11831;55.918;37.746;2022-12-15T11:10:22;99723.91;;;-1.76;0.00
23318;BME280;11831;55.918;37.746;2022-12-15T11:13:14;99720.22;;;-0.91;0.00
23318;BME280;11831;55.918;37.746;2022-12-15T11:15:51;99733.78;;;-1.23;0.00
23318;BME280;11831;55.918;37.746;2022-12-15T11:21:13;99746.78;;;-1.31;0.00
23318;BME280;11831;55.918;37.746;2022-12-15T11:24:04;99750.63;;;-1.63;0.00
23318;BME280;11831;55.918;37.746;2022-12-15T11:32:23;99765.06;;;-1.39;0.00
23318;BME280;11831;55.918;37.746;2022-12-15T11:34:50;99778.72;;;-1.36;0.00
23318;BME280;11831;55.918;37.746;2022-12-15T11:37:37;99770.19;;;-1.57;0.00
23318;BME280;11831;55.918;37.746;2022-12-15T11:49:38;99756.84;;;-1.64;0.00
23318;BME280;11831;55.918;37.746;2022-12-15T11:52:15;99742.59;;;-2.27;0.00
23318;BME280;11831;55.918;37.746;2022-12-15T11:54:54;99741.56;;;-1.88;0.00
23318;BME280;11831;55.918;37.746;2022-12-15T12:00:20;99742.69;;;-1.80;0.00
23318;BME280;11831;55.918;37.746;2022-12-15T12:05:51;99734.00;;;-1.81;0.00
23318;BME280;11831;55.918;37.746;2022-12-15T12:11:15;99720.88;;;-1.81;0.00
23318;BME280;11831;55.918;37.746;2022-12-15T12:17:08;99709.63;;;-1.27;0.00
23318;BME280;11831;55.918;37.746;2022-12-15T12:19:44;99711.84;;;-1.22;0.00
23318;BME280;11831;55.918;37.746;2022-12-15T12:22:33;99709.09;;;-1.30;0.00
23318;BME280;11831;55.918;37.746;2022-12-15T12:25:20;99699.38;;;-1.94;0.00
23318;BME280;11831;55.918;37.746;2022-12-15T12:30:20;99700.06;;;-1.92;0.00
23318;BME280;11831;55.918;37.746;2022-12-15T12:35:35;99698.50;;;-1.38;0.00
23318;BME280;11831;55.918;37.746;2022-12-15T12:38:05;99691.81;;;-2.16;0.00
23318;BME280;11831;55.918;37.746;2022-12-15T12:41:01;99686.00;;;-1.91;0.00
23318;BME280;11831;55.918;37.746;2022-12-15T12:43:33;99676.69;;;-2.23;0.00
23318;BME280;11831;55.918;37.746;2022-12-15T12:46:12;99679.47;;;-1.77;0.00
23318;BME280;11831;55.918;37.746;2022-12-15T12:48:58;99681.78;;;-2.21;0.00
23318;BME280;11831;55.918;37.746;2022-12-15T12:51:29;99685.16;;;-1.82;0.00
23318;BME280;11831;55.918;37.746;2022-12-15T12:53:57;99672.13;;;-2.11;0.00
23318;BME280;11831;55.918;37.746;2022-12-15T12:56:44;99677.34;;;-1.64;0.00
23318;BME280;11831;55.918;37.746;2022-12-15T13:01:57;99672.09;;;-2.01;0.00
23318;BME280;11831;55.918;37.746;2022-12-15T13:04:39;99667.34;;;-1.88;0.00
23318;BME280;11831;55.918;37.746;2022-12-15T13:10:28;99651.28;;;-1.66;0.00
23318;BME280;11831;55.918;37.746;2022-12-15T13:18:05;99652.16;;;-1.84;0.00
23318;BME280;11831;55.918;37.746;2022-12-15T13:20:36;99653.44;;;-1.51;0.00
23318;BME280;11831;55.918;37.746;2022-12-15T13:41:29;99607.03;;;-2.15;0.00
23318;BME280;11831;55.918;37.746;2022-12-15T13:43:59;99597.22;;;-2.04;0.00
23318;BME280;11831;55.918;37.746;2022-12-15T13:46:27;99588.78;;;-2.44;0.00
23318;BME280;11831;55.918;37.746;2022-12-15T13:49:03;99582.78;;;-2.93;0.00
23318;BME280;11831;55.918;37.746;2022-12-15T13:51:34;99577.88;;;-2.40;0.00
23318;BME280;11831;55.918;37.746;2022-12-15T13:54:14;99579.59;;;-2.21;0.00
23318;BME280;11831;55.918;37.746;2022-12-15T13:56:47;99573.97;;;-2.26;0.00
23318;BME280;11831;55.918;37.746;2022-12-15T14:01:51;99571.88;;;-2.69;0.00
23318;BME280;11831;55.918;37.746;2022-12-15T14:04:19;99575.19;;;-3.25;0.00
23318;BME280;11831;55.918;37.746;2022-12-15T14:09:24;99574.84;;;-2.45;0.00
23318;BME280;11831;55.918;37.746;2022-12-15T14:11:52;99573.94;;;-3.12;0.00
23318;BME280;11831;55.918;37.746;2022-12-15T14:14:24;99573.25;;;-3.23;0.00
23318;BME280;11831;55.918;37.746;2022-12-15T14:16:55;99574.19;;;-2.76;0.00
23318;BME280;11831;55.918;37.746;2022-12-15T14:19:23;99572.56;;;-2.67;0.00
23318;BME280;11831;55.918;37.746;2022-12-15T14:21:57;99574.50;;;-2.89;0.00
23318;BME280;11831;55.918;37.746;2022-12-15T14:24:28;99571.31;;;-2.63;0.00
23318;BME280;11831;55.918;37.746;2022-12-15T14:26:55;99551.22;;;-2.92;0.00
23318;BME280;11831;55.918;37.746;2022-12-15T14:29:22;99557.72;;;-3.25;0.00
23318;BME280;11831;55.918;37.746;2022-12-15T14:31:53;99551.22;;;-2.82;0.00
23318;BME280;11831;55.918;37.746;2022-12-15T14:34:31;99550.50;;;-2.65;0.00
23318;BME280;11831;55.918;37.746;2022-12-15T14:37:01;99551.25;;;-3.21;0.00
23318;BME280;11831;55.918;37.746;2022-12-15T14:39:36;99543.53;;;-2.93;0.00
23318;BME280;11831;55.918;37.746;2022-12-15T14:42:06;99552.47;;;-3.25;0.00
23318;BME280;11831;55.918;37.746;2022-12-15T14:44:38;99540.62;;;-3.38;0.00
23318;BME280;11831;55.918;37.746;2022-12-15T14:47:36;99532.38;;;-2.95;0.00
23318;BME280;11831;55.918;37.746;2022-12-15T14:50:03;99537.59;;;-2.86;0.00
23318;BME280;11831;55.918;37.746;2022-12-15T14:52:38;99540.62;;;-2.90;0.00
23318;BME280;11831;55.918;37.746;2022-12-15T14:55:31;99537.69;;;-2.77;0.00
23318;BME280;11831;55.918;37.746;2022-12-15T14:57:59;99533.59;;;-2.90;0.00
23318;BME280;11831;55.918;37.746;2022-12-15T15:00:30;99536.66;;;-3.23;0.00
23318;BME280;11831;55.918;37.746;2022-12-15T15:05:45;99531.16;;;-3.30;0.00
23318;BME280;11831;55.918;37.746;2022-12-15T15:08:18;99530.84;;;-3.17;0.00
23318;BME280;11831;55.918;37.746;2022-12-15T15:10:48;99541.16;;;-3.54;0.00
23318;BME280;11831;55.918;37.746;2022-12-15T15:13:25;99527.53;;;-3.58;0.00
23318;BME280;11831;55.918;37.746;2022-12-15T15:15:56;99524.81;;;-2.98;0.00
23318;BME280;11831;55.918;37.746;2022-12-15T15:18:27;99518.19;;;-3.41;0.00
23318;BME280;11831;55.918;37.746;2022-12-15T15:21:19;99529.59;;;-3.52;0.00
23318;BME280;11831;55.918;37.746;2022-12-15T15:24:24;99535.00;;;-3.24;0.00
23318;BME280;11831;55.918;37.746;2022-12-15T15:26:50;99536.66;;;-3.23;0.00
23318;BME280;11831;55.918;37.746;2022-12-15T15:29:46;99542.41;;;-2.91;0.00